createdAt,value
2023-02-14T00:01:50.517Z,9.77
2023-02-14T00:04:52.892Z,9.87
2023-02-14T00:07:54.916Z,10.20
2023-02-14T00:10:57.431Z,9.97
2023-02-14T00:14:18.606Z,9.90
2023-02-14T00:17:20.875Z,10.63
2023-02-14T00:20:23.846Z,10.03
2023-02-14T00:23:26.118Z,10.23
2023-02-14T00:26:28.135Z,10.20
2023-02-14T00:29:32.471Z,10.50
2023-02-14T00:32:34.474Z,10.40
2023-02-14T00:35:38.666Z,10.87
2023-02-14T00:38:40.664Z,10.53
2023-02-14T00:41:43.609Z,10.20
2023-02-14T00:44:45.787Z,10.73
2023-02-14T00:47:48.089Z,10.83
2023-02-14T00:50:50.186Z,11.43
2023-02-14T00:53:52.764Z,10.70
2023-02-14T00:56:54.753Z,10.13
2023-02-14T00:59:57.063Z,10.90
2023-02-14T01:02:59.046Z,11.53
2023-02-14T01:06:01.671Z,10.47
2023-02-14T01:09:04.223Z,10.60
2023-02-14T01:12:06.713Z,11.13
2023-02-14T01:15:09.246Z,10.53
2023-02-14T01:18:12.159Z,10.70
2023-02-14T01:21:23.986Z,10.90
2023-02-14T01:24:26.658Z,10.80
2023-02-14T01:27:28.739Z,10.47
2023-02-14T01:30:31.537Z,9.90
2023-02-14T01:33:33.799Z,10.33
2023-02-14T01:36:39.860Z,11.73
2023-02-14T01:39:41.945Z,10.97
2023-02-14T01:42:44.214Z,10.43
2023-02-14T01:45:46.275Z,10.33
2023-02-14T01:48:50.802Z,10.30
2023-02-14T01:52:04.438Z,9.97
2023-02-14T01:55:12.970Z,10.40
2023-02-14T01:58:26.453Z,9.27
2023-02-14T02:01:31.365Z,9.73
2023-02-14T02:04:37.565Z,9.17
2023-02-14T02:07:40.374Z,10.60
2023-02-14T02:10:42.372Z,9.50
2023-02-14T02:13:44.724Z,9.77
2023-02-14T02:17:01.851Z,9.97
2023-02-14T02:20:22.920Z,9.90
2023-02-14T02:24:17.767Z,9.60
2023-02-14T02:27:44.690Z,10.10
2023-02-14T02:31:01.896Z,9.60
2023-02-14T02:34:09.983Z,9.53
2023-02-14T02:37:17.456Z,9.97
2023-02-14T02:40:47.481Z,9.50
2023-02-14T02:44:07.932Z,9.90
2023-02-14T02:47:10.224Z,8.50
2023-02-14T02:50:50.574Z,9.77
2023-02-14T02:54:02.922Z,9.27
2023-02-14T02:57:19.533Z,8.97
2023-02-14T03:00:23.934Z,9.17
2023-02-14T03:03:47.501Z,9.57
2023-02-14T03:06:50.962Z,9.70
2023-02-14T03:09:57.521Z,9.17
2023-02-14T03:13:12.058Z,8.93
2023-02-14T03:16:26.475Z,8.73
2023-02-14T03:20:03.807Z,8.40
2023-02-14T03:23:25.664Z,8.93
2023-02-14T03:26:40.104Z,8.50
2023-02-14T03:30:13.937Z,9.23
2023-02-14T03:33:25.220Z,8.97
2023-02-14T03:37:02.540Z,8.97
2023-02-14T03:40:08.106Z,8.83
2023-02-14T03:43:18.723Z,9.43
2023-02-14T03:46:31.524Z,9.43
2023-02-14T03:49:39.183Z,9.30
2023-02-14T03:52:43.794Z,8.23
2023-02-14T03:56:25.615Z,9.00
2023-02-14T03:59:29.299Z,9.27
2023-02-14T04:02:39.580Z,8.87
2023-02-14T04:05:44.367Z,9.43
2023-02-14T04:08:46.536Z,9.20
2023-02-14T04:11:50.566Z,8.53
2023-02-14T04:14:52.638Z,9.03
2023-02-14T04:18:13.404Z,8.97
2023-02-14T04:21:16.229Z,9.07
2023-02-14T04:24:19.382Z,8.70
2023-02-14T04:27:21.359Z,9.23
2023-02-14T04:30:23.807Z,8.80
2023-02-14T04:33:25.892Z,8.67
2023-02-14T04:36:28.142Z,9.90
2023-02-14T04:39:30.193Z,9.63
2023-02-14T04:42:32.460Z,10.43
2023-02-14T04:45:34.517Z,10.77
2023-02-14T04:48:36.811Z,10.37
2023-02-14T04:51:38.974Z,9.23
2023-02-14T04:54:41.368Z,9.23
2023-02-14T04:57:43.435Z,9.50
2023-02-14T05:00:45.881Z,8.97
2023-02-14T05:03:47.979Z,9.00
2023-02-14T05:06:50.279Z,8.80
2023-02-14T05:09:52.293Z,8.73
2023-02-14T05:12:54.652Z,9.03
2023-02-14T05:15:56.668Z,9.50
2023-02-14T05:18:59.104Z,9.30
2023-02-14T05:22:01.126Z,9.17
2023-02-14T05:25:03.505Z,15.30
2023-02-14T05:28:06.191Z,9.03
2023-02-14T05:31:09.973Z,9.03
2023-02-14T05:34:12.423Z,9.23
2023-02-14T05:37:14.703Z,8.93
2023-02-14T05:40:17.144Z,9.00
2023-02-14T05:43:19.525Z,8.87
2023-02-14T05:46:21.517Z,8.70
2023-02-14T05:49:23.813Z,8.93
2023-02-14T05:52:25.825Z,8.83
2023-02-14T05:55:28.439Z,9.30
2023-02-14T05:58:30.812Z,8.80
2023-02-14T06:01:33.956Z,9.03
2023-02-14T06:04:36.071Z,9.00
2023-02-14T06:07:38.520Z,8.93
2023-02-14T06:10:40.596Z,8.73
2023-02-14T06:13:43.049Z,9.13
2023-02-14T06:16:45.076Z,9.10
2023-02-14T06:19:47.459Z,9.43
2023-02-14T06:22:49.650Z,10.03
2023-02-14T06:25:51.963Z,9.97
2023-02-14T06:28:55.614Z,9.80
2023-02-14T06:31:58.043Z,10.53
2023-02-14T06:35:00.446Z,11.07
2023-02-14T06:38:02.830Z,11.20
2023-02-14T06:41:06.729Z,10.70
2023-02-14T06:44:10.447Z,10.90
2023-02-14T06:47:12.453Z,11.63
2023-02-14T06:50:14.777Z,11.40
2023-02-14T06:53:16.883Z,10.87
2023-02-14T06:56:19.399Z,10.93
2023-02-14T06:59:21.499Z,12.00
2023-02-14T07:02:25.127Z,11.07
2023-02-14T07:05:30.389Z,12.23
2023-02-14T07:08:32.725Z,13.47
2023-02-14T07:11:35.330Z,12.00
2023-02-14T07:14:37.704Z,13.27
2023-02-14T07:17:40.289Z,12.87
2023-02-14T07:20:44.391Z,11.23
2023-02-14T07:23:47.827Z,11.57
2023-02-14T07:26:51.929Z,12.07
2023-02-14T07:29:54.011Z,10.87
2023-02-14T07:32:57.714Z,10.80
2023-02-14T07:36:03.836Z,10.77
2023-02-14T07:39:06.297Z,10.07
2023-02-14T07:42:08.755Z,10.20
2023-02-14T07:45:21.212Z,10.43
2023-02-14T07:48:23.574Z,10.33
2023-02-14T07:51:25.848Z,10.17
2023-02-14T07:54:28.032Z,9.77
2023-02-14T07:57:30.322Z,10.07
2023-02-14T08:00:32.493Z,9.83
2023-02-14T08:03:35.158Z,9.70
2023-02-14T08:06:37.435Z,10.43
2023-02-14T08:09:40.217Z,10.47
2023-02-14T08:13:00.485Z,10.67
2023-02-14T08:16:05.814Z,11.03
2023-02-14T08:19:08.175Z,10.50
2023-02-14T08:22:10.519Z,10.50
2023-02-14T08:25:12.488Z,9.30
2023-02-14T08:28:15.123Z,9.43
2023-02-14T08:31:35.692Z,9.40
2023-02-14T08:34:38.720Z,9.50
2023-02-14T08:37:40.753Z,9.20
2023-02-14T08:40:43.549Z,9.07
2023-02-14T08:43:46.112Z,9.90
2023-02-14T08:46:48.498Z,9.73
2023-02-14T08:49:50.558Z,9.37
2023-02-14T08:52:52.888Z,9.00
2023-02-14T08:55:54.869Z,8.40
2023-02-14T08:58:57.265Z,8.20
2023-02-14T09:01:59.290Z,8.90
2023-02-14T09:05:01.794Z,8.20
2023-02-14T09:08:04.467Z,7.63
2023-02-14T09:11:15.693Z,7.23
2023-02-14T09:14:19.253Z,5.73
2023-02-14T09:17:21.643Z,5.80
2023-02-14T09:20:23.832Z,5.20
2023-02-14T09:23:26.316Z,5.07
2023-02-14T09:26:28.856Z,4.73
2023-02-14T09:29:31.798Z,4.80
2023-02-14T09:32:33.940Z,3.77
2023-02-14T09:35:36.170Z,4.10
2023-02-14T09:38:38.304Z,4.53
2023-02-14T09:42:09.685Z,4.30
2023-02-14T09:45:22.334Z,4.00
2023-02-14T09:48:37.557Z,3.60
2023-02-14T09:51:44.909Z,3.40
2023-02-14T09:54:53.722Z,3.20
2023-02-14T09:58:05.023Z,2.70
2023-02-14T10:01:21.455Z,3.30
2023-02-14T10:04:42.466Z,2.80
2023-02-14T10:07:53.777Z,3.57
2023-02-14T10:11:11.786Z,3.20
2023-02-14T10:14:36.115Z,4.13
2023-02-14T10:17:47.470Z,4.97
2023-02-14T10:21:02.072Z,4.10
2023-02-14T10:24:14.005Z,3.57
2023-02-14T10:27:19.406Z,4.07
2023-02-14T10:30:23.803Z,3.43
2023-02-14T10:33:30.756Z,3.20
2023-02-14T10:36:47.906Z,2.60
2023-02-14T10:40:21.091Z,2.90
2023-02-14T10:43:23.027Z,3.27
2023-02-14T10:46:34.406Z,3.17
2023-02-14T10:49:48.496Z,3.30
2023-02-14T10:53:09.666Z,3.20
2023-02-14T10:56:27.016Z,3.23
2023-02-14T10:59:48.497Z,2.80
2023-02-14T11:02:57.911Z,2.83
2023-02-14T11:06:00.312Z,3.90
2023-02-14T11:09:05.487Z,8.20
2023-02-14T11:12:10.020Z,2.77
2023-02-14T11:15:29.101Z,3.00
2023-02-14T11:18:35.647Z,2.33
2023-02-14T11:21:39.885Z,2.63
2023-02-14T11:24:42.396Z,3.50
2023-02-14T11:27:49.992Z,3.77
2023-02-14T11:30:54.070Z,4.37
2023-02-14T11:33:56.861Z,4.13
2023-02-14T11:37:03.893Z,3.87
2023-02-14T11:40:24.839Z,3.73
2023-02-14T11:43:47.950Z,3.13
2023-02-14T11:46:53.815Z,3.00
2023-02-14T11:50:24.696Z,2.93
2023-02-14T11:53:34.452Z,2.47
2023-02-14T11:57:08.315Z,3.00
2023-02-14T12:00:18.875Z,3.10
2023-02-14T12:03:23.625Z,3.03
2023-02-14T12:06:32.698Z,3.20
2023-02-14T12:09:41.013Z,3.43
2023-02-14T12:12:55.587Z,2.87
2023-02-14T12:16:04.595Z,2.97
2023-02-14T12:19:17.210Z,3.00
2023-02-14T12:22:23.965Z,2.97
2023-02-14T12:25:31.417Z,3.10
2023-02-14T12:28:45.784Z,3.60
2023-02-14T12:31:49.583Z,3.33
2023-02-14T12:35:21.759Z,3.63
2023-02-14T12:38:42.151Z,3.37
2023-02-14T12:42:00.752Z,3.10
2023-02-14T12:45:11.383Z,2.90
2023-02-14T12:48:38.894Z,3.43
2023-02-14T12:52:08.674Z,3.27
2023-02-14T12:55:37.373Z,3.57
2023-02-14T12:59:03.896Z,4.30
2023-02-14T13:02:24.344Z,3.10
2023-02-14T13:05:53.580Z,3.97
2023-02-14T13:09:23.014Z,3.60
2023-02-14T13:12:38.887Z,3.70
2023-02-14T13:16:11.501Z,4.00
2023-02-14T13:19:13.549Z,3.90
2023-02-14T13:22:21.705Z,4.03
2023-02-14T13:25:33.937Z,4.13
2023-02-14T13:28:38.744Z,4.50
2023-02-14T13:31:42.269Z,3.97
2023-02-14T13:34:47.162Z,4.43
2023-02-14T13:38:00.435Z,4.30
2023-02-14T13:41:05.407Z,4.27
2023-02-14T13:44:08.567Z,3.80
2023-02-14T13:47:25.436Z,3.70
2023-02-14T13:50:28.076Z,4.17
2023-02-14T13:53:49.087Z,3.60
2023-02-14T13:56:51.494Z,3.70
2023-02-14T14:00:37.071Z,3.17
2023-02-14T14:03:58.781Z,3.90
2023-02-14T14:07:14.070Z,3.60
2023-02-14T14:10:44.773Z,3.50
2023-02-14T14:14:26.795Z,3.87
2023-02-14T14:17:29.063Z,4.07
2023-02-14T14:20:41.059Z,3.73
2023-02-14T14:23:43.765Z,3.43
2023-02-14T14:26:50.456Z,3.70
2023-02-14T14:30:31.004Z,3.70
2023-02-14T14:33:36.831Z,5.10
2023-02-14T14:36:41.705Z,4.67
2023-02-14T14:40:06.860Z,4.80
2023-02-14T14:43:56.344Z,4.53
2023-02-14T14:50:47.535Z,4.63
2023-02-14T14:54:20.537Z,5.20
2023-02-14T14:57:23.219Z,4.20
2023-02-14T15:01:13.402Z,4.87
2023-02-14T15:04:36.060Z,4.73
2023-02-14T15:07:39.362Z,4.37
2023-02-14T15:10:45.110Z,4.53
2023-02-14T15:13:58.848Z,3.93
2023-02-14T15:17:11.719Z,4.67
2023-02-14T15:20:24.584Z,4.43
2023-02-14T15:23:30.211Z,4.20
2023-02-14T15:26:35.782Z,4.50
2023-02-14T15:29:38.413Z,4.70
2023-02-14T15:32:40.734Z,4.73
2023-02-14T15:35:44.022Z,4.43
2023-02-14T15:38:47.388Z,4.77
2023-02-14T15:41:53.193Z,9.87
2023-02-14T15:45:14.327Z,5.20
2023-02-14T15:48:24.209Z,5.40
2023-02-14T15:51:30.418Z,4.80
2023-02-14T15:54:41.661Z,5.63
2023-02-14T15:57:47.894Z,5.33
2023-02-14T16:00:51.907Z,5.70
2023-02-14T16:03:57.972Z,5.30
2023-02-14T16:07:23.946Z,5.50
2023-02-14T16:10:33.914Z,5.40
2023-02-14T16:13:42.018Z,5.53
2023-02-14T16:17:05.457Z,5.90
2023-02-14T16:20:29.379Z,7.30
2023-02-14T16:23:37.018Z,7.30
2023-02-14T16:26:40.007Z,7.13
2023-02-14T16:29:45.376Z,7.30
2023-02-14T16:33:21.749Z,7.03
2023-02-14T16:36:34.038Z,17.23
2023-02-14T16:39:38.871Z,10.90
2023-02-14T16:42:44.104Z,8.87
2023-02-14T16:45:46.978Z,8.47
2023-02-14T16:48:57.606Z,8.63
2023-02-14T16:51:59.759Z,8.53
2023-02-14T16:55:02.985Z,8.90
2023-02-14T16:58:07.739Z,9.40
2023-02-14T17:01:10.152Z,9.83
2023-02-14T17:04:12.363Z,10.30
2023-02-14T17:07:15.996Z,10.20
2023-02-14T17:10:20.250Z,10.60
2023-02-14T17:13:26.710Z,11.33
2023-02-14T17:16:32.509Z,12.87
2023-02-14T17:19:35.556Z,15.47
2023-02-14T17:23:03.643Z,13.83
2023-02-14T17:26:11.299Z,16.03
2023-02-14T17:29:13.526Z,16.60
2023-02-14T17:32:15.952Z,17.23
2023-02-14T17:35:21.357Z,15.90
2023-02-14T17:38:23.907Z,15.77
2023-02-14T17:41:30.313Z,14.97
2023-02-14T17:44:38.669Z,16.27
2023-02-14T17:48:02.699Z,17.93
2023-02-14T17:55:13.959Z,18.90
2023-02-14T17:58:17.307Z,30.60
2023-02-14T18:01:25.998Z,46.77
2023-02-14T18:04:37.280Z,49.40
2023-02-14T18:07:39.954Z,27.77
2023-02-14T18:10:42.068Z,61.43
2023-02-14T18:13:44.556Z,53.00
2023-02-14T18:16:46.682Z,33.37
2023-02-14T18:19:49.225Z,41.23
2023-02-14T18:22:53.833Z,38.30
2023-02-14T18:25:58.580Z,36.40
2023-02-14T18:29:06.427Z,29.37
2023-02-14T18:32:08.814Z,32.10
2023-02-14T18:35:10.808Z,36.97
2023-02-14T18:38:13.489Z,41.90
2023-02-14T18:41:17.992Z,37.13
2023-02-14T18:44:21.555Z,49.73
2023-02-14T18:47:23.584Z,57.17
2023-02-14T18:50:26.074Z,67.47
2023-02-14T18:53:28.117Z,75.93
2023-02-14T18:56:35.819Z,54.80
2023-02-14T18:59:37.866Z,54.60
2023-02-14T19:02:44.208Z,66.67
2023-02-14T19:05:50.167Z,56.07
2023-02-14T19:08:52.529Z,56.40
2023-02-14T19:12:01.349Z,82.07
2023-02-14T19:15:03.810Z,83.77
2023-02-14T19:18:05.837Z,71.43
2023-02-14T19:21:12.707Z,56.53
2023-02-14T19:24:17.270Z,53.30
2023-02-14T19:27:21.549Z,54.53
2023-02-14T19:30:23.608Z,68.10
2023-02-14T19:33:26.519Z,55.30
2023-02-14T19:36:28.570Z,59.60
2023-02-14T19:39:33.549Z,53.70
2023-02-14T19:42:38.070Z,54.23
2023-02-14T19:45:42.882Z,50.73
2023-02-14T19:48:45.499Z,53.57
2023-02-14T19:51:51.432Z,53.17
2023-02-14T19:54:55.500Z,51.27
2023-02-14T19:57:57.825Z,53.37
2023-02-14T20:01:01.159Z,49.93
2023-02-14T20:04:06.035Z,53.67
2023-02-14T20:07:08.464Z,50.10
2023-02-14T20:10:12.560Z,49.50
2023-02-14T20:13:16.830Z,82.20
2023-02-14T20:16:19.578Z,79.57
2023-02-14T20:19:24.326Z,111.67
2023-02-14T20:22:27.057Z,72.93
2023-02-14T20:25:31.977Z,82.60
2023-02-14T20:28:35.659Z,55.77
2023-02-14T20:31:47.897Z,67.57
2023-02-14T20:34:51.890Z,67.03
2023-02-14T20:37:54.974Z,63.93
2023-02-14T20:40:57.481Z,59.30
2023-02-14T20:44:07.932Z,72.97
2023-02-14T20:47:11.186Z,77.90
2023-02-14T20:50:14.162Z,79.50
2023-02-14T20:53:18.879Z,75.80
2023-02-14T20:56:22.774Z,70.60
2023-02-14T20:59:31.481Z,72.60
2023-02-14T21:02:34.526Z,66.30
2023-02-14T21:05:36.937Z,56.13
2023-02-14T21:08:41.905Z,47.60
2023-02-14T21:11:46.725Z,43.27
2023-02-14T21:14:48.790Z,44.60
2023-02-14T21:17:54.319Z,44.93
2023-02-14T21:21:06.725Z,36.57
2023-02-14T21:24:14.543Z,34.33
2023-02-14T21:27:19.655Z,38.33
2023-02-14T21:30:22.142Z,40.60
2023-02-14T21:33:31.240Z,33.60
2023-02-14T21:36:37.373Z,35.03
2023-02-14T21:39:45.826Z,31.97
2023-02-14T21:42:48.150Z,27.97
2023-02-14T21:45:56.950Z,27.57
2023-02-14T21:49:20.156Z,27.33
2023-02-14T21:52:22.157Z,27.03
2023-02-14T21:55:24.680Z,26.50
2023-02-14T21:58:26.699Z,28.03
2023-02-14T22:01:34.569Z,26.50
2023-02-14T22:04:38.075Z,28.10
2023-02-14T22:07:40.432Z,28.77
2023-02-14T22:10:42.447Z,30.23
2023-02-14T22:13:44.736Z,29.63
2023-02-14T22:16:46.738Z,28.40
2023-02-14T22:19:49.068Z,29.03
2023-02-14T22:22:51.104Z,29.10
2023-02-14T22:25:53.438Z,28.93
2023-02-14T22:28:59.200Z,28.80
2023-02-14T22:32:01.631Z,29.73
2023-02-14T22:35:03.766Z,28.63
2023-02-14T22:38:06.130Z,27.03
2023-02-14T22:41:12.020Z,26.87
2023-02-14T22:44:14.418Z,25.17
2023-02-14T22:47:17.157Z,25.13
2023-02-14T22:50:19.505Z,24.23
2023-02-14T22:53:21.510Z,23.63
2023-02-14T22:56:26.723Z,24.67
2023-02-14T22:59:31.156Z,24.30
2023-02-14T23:02:34.138Z,22.60
2023-02-14T23:05:37.259Z,24.63
2023-02-14T23:08:44.407Z,25.77
2023-02-14T23:11:47.521Z,23.03
2023-02-14T23:15:08.571Z,25.97
2023-02-14T23:18:32.008Z,25.40
2023-02-14T23:21:53.034Z,25.80
2023-02-14T23:24:57.818Z,26.97
2023-02-14T23:28:00.129Z,26.33
2023-02-14T23:31:02.683Z,25.93
2023-02-14T23:34:04.974Z,30.33
2023-02-14T23:37:07.608Z,31.10
2023-02-14T23:40:10.483Z,31.27
2023-02-14T23:43:12.579Z,29.13
2023-02-14T23:46:14.912Z,29.63
2023-02-14T23:49:17.767Z,28.40
2023-02-14T23:52:20.092Z,33.73
2023-02-14T23:55:22.463Z,30.10
2023-02-14T23:58:24.786Z,30.03
